Αρχική σελίδα
METAR-TAF:

METAR-TAF

Αεροδρόμια :

Dease Lake, Βρετανική Κολομβία, Καναδάς

γεωγραφικό πλάτος: 58-25-20N, γεωγραφικό μήκος: 130-01-53W, υψόμετρο: 803 μ

Παρών καιρός

Η αναφορά έγινε 26 λεπτά πριν, στις 20:00 UTC
Άνεμος 7 kt από μεταβλητές κατευθύνσεις
Θερμοκρασία 19°C
Υγρασία 22%
Πίεση 1008 hPa
Ορατότητα: 14.5 χλμ
Διάσπαρτα νέφη σε ύψος 9500 πόδια

METAR: CYDL 192000Z AUTO VRB07KT 9SM SCT095 19/M03 A2977 RMK SLP083 DENSITY ALT 3900FT

Χρόνος: 13:26 (20:26 UTC)

Πρόγνωση Καιρού

Η αναφορά έγινε 2 ώρες και 48 λεπτά πριν, στις 17:38 UTC
Η πρόγνωση ισχύει από τις 19 στις 18 UTC έως τις 20 στις 02 UTC
Άνεμος 8 kt από Α
Ορατότητα: 10 χλμ
Καθαρός ουρανός
Από 19 στις 2200 UTC
Άνεμος 8 kt από Α/NA
Ορατότητα: 10 χλμ
Λίγα νέφη σε ύψος 7000 πόδια

TAF: CYDL 191738Z 1918/2002 08008KT P6SM SKC FM192200 11008KT P6SM FEW070 RMK FCST BASED ON AUTO OBS. NXT FCST BY 200000Z

Μετεωρολογικές αναφορές και προγνώσεις για περισσότερα από 4000 αεροδρόμια (δελτία METAR και TAF).

Οι διαθέσιμοι σταθμοί απεικονίζονται στο χάρτη με κίτρινες και κόκκινες κουκκίδες.

Μετακινήστε το ποντίκι πάνω από τις κουκκίδες για να δείτε το όνομα του σταθμού.

Στη συνέχεια, κάντε κλικ για να δείτε τις μετεωρολογικές αναφορές και τις προγνώσεις καιρού.

Για να αλλάξετε το χάρτη: κάντε κλικ στα πράσινα κουμπιά με τον μαύρο σταυρό για να ζουμάρετε, στο πράσινο κουμπί με την παύλα για να αφαιρέσετε το ζουμ ή στα πράσινα βέλη για να αντιπαραβάλλετε χάρτες.


METAR-TAF: